createdAt,value
2023-02-08T00:03:49.835Z,22.87
2023-02-08T00:08:51.502Z,18.33
2023-02-08T00:13:53.217Z,17.43
2023-02-08T00:18:54.887Z,18.30
2023-02-08T00:23:57.338Z,18.70
2023-02-08T00:28:59.011Z,18.57
2023-02-08T00:34:00.694Z,19.23
2023-02-08T00:39:02.360Z,16.90
2023-02-08T00:44:04.127Z,18.13
2023-02-08T00:49:05.777Z,18.57
2023-02-08T00:54:07.437Z,18.00
2023-02-08T00:59:09.142Z,16.97
2023-02-08T01:04:10.852Z,16.93
2023-02-08T01:09:12.503Z,16.93
2023-02-08T01:14:14.169Z,16.20
2023-02-08T01:19:16.437Z,17.40
2023-02-08T01:24:18.179Z,15.87
2023-02-08T01:29:19.810Z,17.20
2023-02-08T01:34:21.457Z,16.40
2023-02-08T01:39:23.129Z,16.43
2023-02-08T01:45:02.224Z,15.80
2023-02-08T01:50:04.276Z,15.07
2023-02-08T01:55:20.413Z,16.43
2023-02-08T02:00:23.174Z,16.60
2023-02-08T02:05:39.907Z,15.53
2023-02-08T02:10:42.773Z,15.13
2023-02-08T02:15:45.621Z,16.00
2023-02-08T02:21:05.812Z,15.50
2023-02-08T02:26:23.171Z,14.90
2023-02-08T02:31:43.084Z,15.37
2023-02-08T02:36:53.138Z,14.63
2023-02-08T02:42:42.027Z,15.27
2023-02-08T02:47:52.885Z,15.47
2023-02-08T02:53:07.380Z,14.83
2023-02-08T02:58:12.024Z,16.70
2023-02-08T03:03:23.267Z,14.90
2023-02-08T03:08:32.544Z,15.07
2023-02-08T03:13:55.079Z,14.67
2023-02-08T03:19:11.766Z,14.93
2023-02-08T03:24:33.079Z,14.13
2023-02-08T03:30:04.065Z,15.27
2023-02-08T03:35:25.231Z,14.03
2023-02-08T03:40:41.836Z,15.63
2023-02-08T03:45:49.726Z,15.93
2023-02-08T03:50:53.919Z,15.20
2023-02-08T03:56:01.707Z,15.40
2023-02-08T04:01:08.715Z,15.33
2023-02-08T04:06:10.537Z,16.97
2023-02-08T04:11:12.255Z,16.00
2023-02-08T04:16:14.121Z,15.47
2023-02-08T04:21:15.768Z,15.37
2023-02-08T04:26:17.398Z,16.30
2023-02-08T04:31:19.250Z,16.03
2023-02-08T04:36:21.084Z,15.90
2023-02-08T04:41:22.736Z,16.83
2023-02-08T04:46:24.565Z,16.10
2023-02-08T04:51:26.320Z,16.83
2023-02-08T04:56:31.494Z,16.77
2023-02-08T05:01:33.723Z,15.50
2023-02-08T05:06:35.463Z,15.40
2023-02-08T05:11:37.532Z,16.87
2023-02-08T05:16:39.219Z,20.27
2023-02-08T05:21:40.897Z,29.93
2023-02-08T05:26:42.676Z,29.40
2023-02-08T05:31:44.456Z,30.10
2023-02-08T05:36:46.219Z,40.60
2023-02-08T05:41:47.882Z,35.00
2023-02-08T05:46:49.632Z,37.93
2023-02-08T05:51:51.401Z,21.87
2023-02-08T05:56:53.129Z,20.20
2023-02-08T06:01:54.886Z,25.77
2023-02-08T06:06:56.564Z,41.47
2023-02-08T06:11:58.270Z,28.80
2023-02-08T06:17:00.231Z,22.03
2023-02-08T06:22:02.037Z,36.87
2023-02-08T06:27:03.823Z,25.17
2023-02-08T06:32:05.676Z,23.43
2023-02-08T06:37:07.442Z,21.43
2023-02-08T06:42:09.298Z,20.60
2023-02-08T06:47:10.950Z,42.83
2023-02-08T06:52:12.723Z,24.47
2023-02-08T06:57:14.481Z,24.37
2023-02-08T07:02:19.072Z,24.00
2023-02-08T07:07:20.837Z,24.60
2023-02-08T07:12:22.564Z,26.97
2023-02-08T07:17:24.265Z,24.93
2023-02-08T07:22:25.977Z,37.00
2023-02-08T07:27:27.986Z,39.67
2023-02-08T07:32:29.794Z,41.00
2023-02-08T07:37:33.026Z,34.43
2023-02-08T07:42:34.725Z,36.60
2023-02-08T07:47:36.420Z,30.17
2023-02-08T07:52:38.174Z,31.00
2023-02-08T07:57:39.871Z,28.13
2023-02-08T08:02:41.974Z,26.80
2023-02-08T08:07:43.749Z,33.33
2023-02-08T08:12:45.560Z,27.53
2023-02-08T08:17:47.222Z,36.10
2023-02-08T08:22:49.222Z,24.73
2023-02-08T08:27:51.002Z,23.90
2023-02-08T08:32:52.802Z,27.23
2023-02-08T08:37:54.476Z,24.73
2023-02-08T08:42:57.304Z,22.87
2023-02-08T08:48:00.600Z,21.60
2023-02-08T08:53:02.475Z,22.20
2023-02-08T08:58:04.190Z,20.97
2023-02-08T09:03:05.935Z,16.10
2023-02-08T09:08:07.814Z,15.67
2023-02-08T09:13:09.655Z,15.20
2023-02-08T09:18:11.482Z,14.87
2023-02-08T09:23:14.597Z,14.70
2023-02-08T09:28:16.385Z,15.30
2023-02-08T09:33:18.086Z,15.40
2023-02-08T09:38:19.905Z,15.10
2023-02-08T09:43:31.594Z,14.53
2023-02-08T09:48:41.055Z,15.60
2023-02-08T09:53:50.381Z,13.97
2023-02-08T09:58:53.602Z,14.33
2023-02-08T10:04:28.003Z,13.53
2023-02-08T10:09:29.772Z,14.70
2023-02-08T10:14:40.249Z,14.50
2023-02-08T10:20:07.453Z,13.83
2023-02-08T10:25:35.310Z,13.33
2023-02-08T10:30:52.455Z,12.60
2023-02-08T10:35:54.844Z,12.13
2023-02-08T10:41:02.077Z,10.87
2023-02-08T10:46:32.329Z,11.03
2023-02-08T10:51:34.609Z,10.07
2023-02-08T10:57:06.461Z,10.20
2023-02-08T11:02:29.663Z,10.00
2023-02-08T11:07:34.717Z,10.20
2023-02-08T11:12:38.000Z,10.67
2023-02-08T11:17:39.819Z,10.23
2023-02-08T11:22:45.979Z,10.30
2023-02-08T11:27:50.570Z,14.33
2023-02-08T11:33:23.237Z,11.57
2023-02-08T11:38:28.348Z,13.43
2023-02-08T11:43:35.379Z,12.10
2023-02-08T11:48:48.897Z,12.23
2023-02-08T11:53:50.626Z,12.60
2023-02-08T11:59:12.427Z,12.63
2023-02-08T12:04:15.978Z,14.43
2023-02-08T12:09:52.753Z,13.00
2023-02-08T12:15:24.296Z,12.33
2023-02-08T12:20:45.522Z,12.40
2023-02-08T12:26:02.739Z,13.37
2023-02-08T12:31:18.255Z,13.87
2023-02-08T12:37:18.057Z,11.40
2023-02-08T12:42:19.749Z,11.87
2023-02-08T12:47:39.482Z,11.43
2023-02-08T12:52:55.128Z,10.70
2023-02-08T12:58:00.310Z,10.68
2023-02-08T13:03:23.848Z,11.00
2023-02-08T13:08:50.682Z,10.20
2023-02-08T13:14:07.458Z,11.07
2023-02-08T13:19:36.849Z,11.40
2023-02-08T13:24:42.237Z,11.43
2023-02-08T13:29:50.732Z,11.10
2023-02-08T13:34:56.802Z,11.23
2023-02-08T13:40:28.287Z,11.23
2023-02-08T13:45:31.762Z,11.55
2023-02-08T13:50:52.805Z,10.87
2023-02-08T13:56:01.153Z,11.40
2023-02-08T14:01:28.658Z,11.70
2023-02-08T14:06:31.745Z,11.40
2023-02-08T14:11:46.115Z,11.80
2023-02-08T14:17:09.495Z,11.87
2023-02-08T14:22:11.157Z,12.73
2023-02-08T14:27:34.130Z,12.83
2023-02-08T14:32:42.567Z,13.30
2023-02-08T14:37:45.264Z,14.33
2023-02-08T14:42:53.174Z,15.87
2023-02-08T14:48:09.781Z,14.33
2023-02-08T14:53:25.569Z,13.50
2023-02-08T14:58:34.520Z,13.43
2023-02-08T15:03:36.508Z,14.00
2023-02-08T15:08:38.388Z,13.97
2023-02-08T15:13:40.104Z,13.67
2023-02-08T15:18:47.469Z,13.47
2023-02-08T15:23:59.232Z,13.43
2023-02-08T15:29:01.114Z,13.23
2023-02-08T15:34:03.071Z,13.80
2023-02-08T15:39:19.693Z,14.43
2023-02-08T15:44:30.622Z,16.87
2023-02-08T15:49:34.321Z,17.13
2023-02-08T15:54:36.294Z,16.97
2023-02-08T15:59:39.906Z,16.27
2023-02-08T16:04:46.199Z,16.97
2023-02-08T16:09:48.056Z,16.70
2023-02-08T16:14:52.856Z,17.83
2023-02-08T16:19:54.734Z,17.17
2023-02-08T16:25:22.586Z,16.83
2023-02-08T16:30:24.680Z,18.17
2023-02-08T16:35:30.017Z,18.70
2023-02-08T16:40:48.901Z,18.30
2023-02-08T16:46:12.293Z,17.90
2023-02-08T16:51:21.875Z,17.63
2023-02-08T16:56:24.118Z,18.63
2023-02-08T17:01:26.503Z,20.10
2023-02-08T17:06:31.709Z,19.27
2023-02-08T17:11:33.656Z,18.57
2023-02-08T17:16:36.990Z,18.13
2023-02-08T17:21:38.754Z,19.77
2023-02-08T17:26:43.316Z,19.67
2023-02-08T17:31:45.759Z,19.97
2023-02-08T17:36:48.760Z,18.43
2023-02-08T17:41:50.434Z,20.40
2023-02-08T17:46:52.137Z,21.17
2023-02-08T17:51:53.836Z,20.30
2023-02-08T17:56:58.532Z,19.17
2023-02-08T18:02:00.290Z,18.57
2023-02-08T18:07:02.082Z,17.40
2023-02-08T18:12:03.886Z,21.10
2023-02-08T18:17:06.992Z,18.43
2023-02-08T18:22:08.933Z,18.10
2023-02-08T18:27:10.616Z,18.20
2023-02-08T18:32:12.530Z,16.30
2023-02-08T18:37:14.828Z,17.00
2023-02-08T18:42:16.515Z,18.00
2023-02-08T18:47:18.228Z,21.13
2023-02-08T18:52:19.959Z,18.37
2023-02-08T18:57:21.693Z,19.20
2023-02-08T19:02:23.663Z,18.27
2023-02-08T19:07:25.775Z,17.73
2023-02-08T19:12:27.962Z,17.60
2023-02-08T19:17:29.673Z,17.57
2023-02-08T19:22:31.563Z,17.97
2023-02-08T19:27:33.246Z,17.63
2023-02-08T19:32:35.042Z,16.27
2023-02-08T19:37:37.154Z,19.53
2023-02-08T19:42:38.924Z,22.20
2023-02-08T19:47:51.219Z,23.37
2023-02-08T19:52:53.441Z,19.60
2023-02-08T19:57:55.157Z,15.93
2023-02-08T20:02:56.934Z,16.67
2023-02-08T20:08:00.709Z,16.10
2023-02-08T20:13:02.411Z,16.87
2023-02-08T20:18:04.753Z,17.13
2023-02-08T20:23:21.777Z,16.30
2023-02-08T20:28:23.957Z,17.50
2023-02-08T20:33:25.693Z,16.93
2023-02-08T20:38:27.342Z,21.70
2023-02-08T20:43:29.035Z,16.57
2023-02-08T20:48:30.710Z,17.83
2023-02-08T20:53:33.464Z,19.27
2023-02-08T20:58:35.656Z,19.23
2023-02-08T21:03:37.811Z,17.10
2023-02-08T21:08:39.935Z,16.70
2023-02-08T21:13:41.592Z,18.03
2023-02-08T21:18:43.808Z,17.30
2023-02-08T21:23:46.623Z,18.30
2023-02-08T21:28:52.011Z,17.07
2023-02-08T21:33:53.858Z,17.00
2023-02-08T21:38:57.346Z,17.07
2023-02-08T21:44:00.770Z,16.10
2023-02-08T21:49:21.022Z,16.40
2023-02-08T21:54:41.427Z,15.43
2023-02-08T21:59:43.548Z,18.47
2023-02-08T22:05:04.093Z,18.13
2023-02-08T22:10:10.184Z,16.83
2023-02-08T22:15:14.385Z,16.90
2023-02-08T22:20:16.342Z,15.87
2023-02-08T22:25:19.181Z,17.20
2023-02-08T22:30:21.850Z,16.67
2023-02-08T22:35:24.526Z,16.20
2023-02-08T22:40:26.253Z,18.60
2023-02-08T22:45:28.046Z,17.23
2023-02-08T22:50:29.753Z,18.27
2023-02-08T22:55:31.453Z,17.67
2023-02-08T23:00:33.123Z,17.57
2023-02-08T23:05:34.885Z,16.00
2023-02-08T23:10:36.889Z,15.20
2023-02-08T23:15:41.923Z,20.10
2023-02-08T23:20:43.990Z,18.07
2023-02-08T23:25:45.910Z,20.57
2023-02-08T23:30:47.864Z,19.30
2023-02-08T23:35:49.710Z,16.53
2023-02-08T23:40:51.524Z,17.03
2023-02-08T23:45:53.162Z,15.57
2023-02-08T23:50:59.871Z,15.13
2023-02-08T23:56:17.269Z,15.70
